Time;durP1;ratioP1;P1;durP2;ratioP2;P2;SDS_P1;SDS_P2;PMS_P1;PMS_P2;Temp;Humidity;BMP_temperature;BMP_pressure;BME280_temperature;BME280_humidity;BME280_pressure;Samples;Min_cycle;Max_cycle;Signal;HPM_P1;HPM_P2
2024/01/12 00:01:22;;;;;;;208.50;95.37;;;;;;;;;;5050548;28;20020;-84
2024/01/12 00:03:47;;;;;;;223.13;101.20;;;;;;;;;;5050550;28;20092;-83
2024/01/12 00:06:13;;;;;;;408.70;175.53;;;;;;;;;;5050436;28;20025;-84
2024/01/12 00:08:38;;;;;;;717.77;303.17;;;;;;;;;;5048587;28;20025;-84
2024/01/12 00:11:06;;;;;;;144.43;66.67;;;;;;;;;;5050324;28;20466;-84
2024/01/12 00:13:32;;;;;;;143.40;63.87;;;;;;;;;;5052390;28;20521;-84
2024/01/12 00:15:57;;;;;;;134.53;60.40;;;;;;;;;;5050447;28;20276;-84
2024/01/12 00:18:22;;;;;;;115.33;50.77;;;;;;;;;;5048292;28;20070;-83
2024/01/12 00:20:48;;;;;;;168.53;88.97;;;;;;;;;;5048859;28;20029;-83
2024/01/12 00:23:13;;;;;;;132.13;63.70;;;;;;;;;;5050751;28;20103;-84
2024/01/12 00:25:38;;;;;;;166.30;74.40;;;;;;;;;;5051952;28;20124;-84
2024/01/12 00:28:04;;;;;;;332.33;131.37;;;;;;;;;;5051087;28;20028;-84
2024/01/12 00:30:29;;;;;;;167.00;69.20;;;;;;;;;;5061702;28;20017;-83
2024/01/12 00:32:54;;;;;;;263.73;120.13;;;;;;;;;;5061700;28;20020;-82
2024/01/12 00:35:21;;;;;;;104.87;51.50;;;;;;;;;;5049336;28;20107;-84
2024/01/12 00:37:48;;;;;;;103.40;51.73;;;;;;;;;;5050515;28;20040;-84
2024/01/12 00:40:14;;;;;;;104.07;48.70;;;;;;;;;;5050384;28;20020;-84
2024/01/12 00:42:39;;;;;;;109.80;55.93;;;;;;;;;;5049581;28;20063;-84
2024/01/12 00:45:05;;;;;;;78.43;38.20;;;;;;;;;;5050355;28;20025;-84
2024/01/12 00:47:32;;;;;;;74.13;36.30;;;;;;;;;;5050779;28;20383;-84
2024/01/12 00:49:57;;;;;;;82.60;40.73;;;;;;;;;;5032268;28;20052;-82
2024/01/12 00:52:22;;;;;;;66.23;33.47;;;;;;;;;;5049913;28;20538;-84
2024/01/12 00:54:47;;;;;;;84.93;43.67;;;;;;;;;;5048214;28;20056;-82
2024/01/12 00:57:13;;;;;;;97.50;49.60;;;;;;;;;;5049846;28;20158;-84
2024/01/12 00:59:38;;;;;;;58.63;27.43;;;;;;;;;;5044023;28;20028;-84
2024/01/12 01:02:04;;;;;;;87.30;42.57;;;;;;;;;;5048491;28;20104;-84
2024/01/12 01:04:29;;;;;;;77.97;36.80;;;;;;;;;;5047700;28;20036;-84
2024/01/12 01:06:54;;;;;;;127.00;59.17;;;;;;;;;;5048572;28;20025;-84
2024/01/12 01:09:21;;;;;;;95.63;43.47;;;;;;;;;;5049390;28;20478;-84
2024/01/12 01:11:46;;;;;;;95.47;42.50;;;;;;;;;;5031562;28;20029;-84
2024/01/12 01:14:12;;;;;;;127.53;59.30;;;;;;;;;;5048079;28;20386;-84
2024/01/12 01:16:37;;;;;;;95.40;41.83;;;;;;;;;;5049513;28;20025;-84
2024/01/12 01:19:02;;;;;;;133.00;57.00;;;;;;;;;;5049263;28;20049;-84
2024/01/12 01:21:28;;;;;;;79.07;39.23;;;;;;;;;;5047756;28;20358;-84
2024/01/12 01:23:54;;;;;;;86.23;34.20;;;;;;;;;;5050441;28;20388;-83
2024/01/12 01:26:19;;;;;;;58.43;28.87;;;;;;;;;;5053052;28;20626;-84
2024/01/12 01:28:45;;;;;;;59.53;34.63;;;;;;;;;;5049740;28;20017;-84
2024/01/12 01:31:10;;;;;;;79.87;39.27;;;;;;;;;;5047883;28;20479;-84
2024/01/12 01:33:35;;;;;;;77.37;36.30;;;;;;;;;;5047702;28;20060;-84
2024/01/12 01:36:00;;;;;;;69.03;37.53;;;;;;;;;;5047874;28;20024;-83
2024/01/12 01:38:26;;;;;;;46.00;20.60;;;;;;;;;;5049143;28;20028;-84
2024/01/12 01:40:52;;;;;;;69.23;33.77;;;;;;;;;;5047943;28;20029;-84
2024/01/12 01:43:17;;;;;;;62.27;28.67;;;;;;;;;;5049108;28;20025;-84
2024/01/12 01:45:43;;;;;;;46.80;24.00;;;;;;;;;;5047252;28;20043;-83
2024/01/12 01:48:08;;;;;;;53.90;28.37;;;;;;;;;;5047315;28;20509;-84
2024/01/12 01:50:35;;;;;;;58.73;31.07;;;;;;;;;;5047391;28;20509;-84
2024/01/12 01:53:00;;;;;;;51.90;27.67;;;;;;;;;;5051658;28;20029;-84
2024/01/12 01:55:28;;;;;;;54.10;31.07;;;;;;;;;;5047325;28;20029;-84
2024/01/12 01:57:55;;;;;;;62.33;38.67;;;;;;;;;;5049077;28;20055;-84
2024/01/12 02:00:20;;;;;;;48.23;24.63;;;;;;;;;;5048714;28;20025;-84
2024/01/12 02:02:46;;;;;;;56.83;30.13;;;;;;;;;;5047086;28;20086;-84
2024/01/12 02:05:13;;;;;;;79.33;40.30;;;;;;;;;;5045322;28;20025;-84
2024/01/12 02:07:38;;;;;;;68.10;35.80;;;;;;;;;;5048080;28;20100;-84
2024/01/12 02:10:05;;;;;;;55.97;30.40;;;;;;;;;;5046058;28;20160;-84
2024/01/12 02:12:30;;;;;;;54.53;28.67;;;;;;;;;;5030376;28;20403;-84
2024/01/12 02:14:56;;;;;;;61.60;30.37;;;;;;;;;;5047750;28;20021;-83
2024/01/12 02:17:21;;;;;;;68.83;36.57;;;;;;;;;;5046119;28;20095;-84
2024/01/12 02:19:46;;;;;;;61.57;29.97;;;;;;;;;;5046219;28;20029;-84
2024/01/12 02:22:12;;;;;;;80.70;40.13;;;;;;;;;;5047696;28;20108;-84
2024/01/12 02:24:37;;;;;;;84.50;41.03;;;;;;;;;;5047154;28;20021;-83
2024/01/12 02:27:03;;;;;;;94.47;45.77;;;;;;;;;;5047371;28;20024;-84
2024/01/12 02:29:28;;;;;;;84.13;36.37;;;;;;;;;;5046436;28;20459;-84
2024/01/12 02:31:54;;;;;;;69.33;33.27;;;;;;;;;;5045994;28;20039;-84
2024/01/12 02:34:19;;;;;;;50.13;25.20;;;;;;;;;;5046633;28;20394;-84
2024/01/12 02:36:45;;;;;;;46.57;22.20;;;;;;;;;;5047474;28;20055;-84
2024/01/12 02:39:10;;;;;;;72.87;36.33;;;;;;;;;;5029752;28;20033;-84
2024/01/12 02:41:36;;;;;;;62.93;29.07;;;;;;;;;;5046254;28;20029;-84
2024/01/12 02:44:01;;;;;;;74.13;35.80;;;;;;;;;;5047292;28;20032;-84
2024/01/12 02:46:26;;;;;;;57.67;26.73;;;;;;;;;;5046101;28;20029;-83
2024/01/12 02:48:51;;;;;;;87.67;37.83;;;;;;;;;;5047502;28;20462;-84
2024/01/12 02:51:17;;;;;;;71.23;29.87;;;;;;;;;;5045417;28;20052;-84
2024/01/12 02:53:42;;;;;;;54.90;28.07;;;;;;;;;;5047547;28;20021;-83
2024/01/12 02:56:07;;;;;;;57.73;26.63;;;;;;;;;;5029106;28;20471;-84
2024/01/12 02:58:33;;;;;;;50.40;23.30;;;;;;;;;;5046273;28;20317;-84
2024/01/12 03:01:00;;;;;;;74.47;36.37;;;;;;;;;;5045455;28;20028;-83
2024/01/12 03:03:25;;;;;;;77.10;39.93;;;;;;;;;;5042650;28;20600;-83
2024/01/12 03:05:51;;;;;;;68.77;32.90;;;;;;;;;;5038306;28;20017;-83
2024/01/12 03:08:16;;;;;;;82.67;39.23;;;;;;;;;;5047243;28;20025;-84
2024/01/12 03:10:41;;;;;;;67.37;33.30;;;;;;;;;;5047574;28;20039;-84
2024/01/12 03:13:06;;;;;;;74.53;35.63;;;;;;;;;;5046742;28;20481;-84
2024/01/12 03:15:32;;;;;;;81.23;38.97;;;;;;;;;;5045374;28;20070;-84
2024/01/12 03:17:57;;;;;;;88.50;40.37;;;;;;;;;;5045430;28;20410;-84
2024/01/12 03:20:22;;;;;;;67.50;32.33;;;;;;;;;;5045660;28;20384;-83
2024/01/12 03:22:48;;;;;;;57.37;27.03;;;;;;;;;;5058347;28;20131;-83
2024/01/12 03:25:13;;;;;;;55.67;28.87;;;;;;;;;;5048249;28;20629;-83
2024/01/12 03:27:38;;;;;;;65.57;33.80;;;;;;;;;;5047019;28;20033;-84
2024/01/12 03:30:04;;;;;;;45.17;20.53;;;;;;;;;;5048756;28;20387;-84
2024/01/12 03:32:29;;;;;;;72.57;35.10;;;;;;;;;;5049887;28;20056;-84
2024/01/12 03:34:55;;;;;;;74.33;36.97;;;;;;;;;;5049753;28;20032;-84
2024/01/12 03:37:20;;;;;;;58.07;28.33;;;;;;;;;;5050959;28;20032;-84
2024/01/12 03:39:45;;;;;;;72.53;33.37;;;;;;;;;;5051125;28;20048;-83
2024/01/12 03:42:11;;;;;;;86.90;40.90;;;;;;;;;;5049487;28;20029;-83
2024/01/12 03:44:36;;;;;;;69.97;32.00;;;;;;;;;;5049506;28;20025;-84
2024/01/12 03:47:01;;;;;;;69.97;33.10;;;;;;;;;;5049063;28;20063;-84
2024/01/12 03:49:26;;;;;;;57.50;27.00;;;;;;;;;;5051006;28;20071;-84
2024/01/12 03:51:55;;;;;;;60.27;28.60;;;;;;;;;;5049515;28;20021;-84
2024/01/12 03:54:27;;;;;;;59.28;27.13;;;;;;;;;;5050951;28;20078;-84
2024/01/12 03:56:52;;;;;;;70.47;34.23;;;;;;;;;;5048857;28;20099;-84
2024/01/12 03:59:18;;;;;;;80.33;35.67;;;;;;;;;;5050791;28;20025;-84
2024/01/12 04:01:47;;;;;;;62.60;29.87;;;;;;;;;;5049598;28;20025;-84
2024/01/12 04:04:12;;;;;;;79.80;37.67;;;;;;;;;;5048998;28;20070;-84
2024/01/12 04:06:38;;;;;;;68.57;33.03;;;;;;;;;;5049004;28;20033;-84
2024/01/12 04:09:03;;;;;;;72.77;35.70;;;;;;;;;;5048084;28;20028;-84
2024/01/12 04:11:28;;;;;;;63.57;30.43;;;;;;;;;;5059741;28;20028;-84
2024/01/12 04:13:54;;;;;;;74.43;37.17;;;;;;;;;;5048625;28;20029;-84
2024/01/12 04:16:20;;;;;;;79.80;39.57;;;;;;;;;;5048249;28;20025;-84
2024/01/12 04:18:45;;;;;;;71.13;35.77;;;;;;;;;;5048394;28;20192;-83
2024/01/12 04:21:11;;;;;;;86.33;38.30;;;;;;;;;;5048706;28;20045;-84
2024/01/12 04:23:37;;;;;;;76.80;38.57;;;;;;;;;;5032224;28;20145;-84
2024/01/12 04:26:03;;;;;;;46.33;23.87;;;;;;;;;;5049421;28;20013;-84
2024/01/12 04:28:28;;;;;;;57.40;28.07;;;;;;;;;;5048583;28;20090;-84
2024/01/12 04:30:53;;;;;;;61.10;28.70;;;;;;;;;;5050047;28;20360;-84
2024/01/12 04:33:18;;;;;;;64.53;32.30;;;;;;;;;;5048371;28;20036;-83
2024/01/12 04:35:44;;;;;;;63.97;28.87;;;;;;;;;;5048309;28;20039;-83
2024/01/12 04:38:10;;;;;;;59.97;28.50;;;;;;;;;;5050023;28;20372;-84
2024/01/12 04:40:36;;;;;;;67.50;32.63;;;;;;;;;;5047973;28;20119;-83
2024/01/12 04:43:03;;;;;;;48.73;24.30;;;;;;;;;;5047699;28;20151;-83
2024/01/12 04:45:28;;;;;;;58.43;28.87;;;;;;;;;;5050263;28;20032;-84
2024/01/12 04:47:53;;;;;;;61.17;29.77;;;;;;;;;;5048541;28;20025;-84
2024/01/12 04:50:18;;;;;;;55.23;27.43;;;;;;;;;;5048612;28;20028;-84
2024/01/12 04:52:44;;;;;;;56.43;27.50;;;;;;;;;;5060585;28;20108;-83
2024/01/12 04:55:09;;;;;;;54.93;24.90;;;;;;;;;;5049266;28;20021;-84
2024/01/12 04:57:34;;;;;;;62.33;27.73;;;;;;;;;;5049705;28;20013;-84
2024/01/12 04:59:59;;;;;;;63.37;31.60;;;;;;;;;;5048085;28;20416;-84
2024/01/12 05:02:25;;;;;;;57.80;27.53;;;;;;;;;;5047723;28;20086;-82
2024/01/12 05:04:50;;;;;;;73.83;30.97;;;;;;;;;;5028033;28;20108;-83
2024/01/12 05:07:15;;;;;;;74.97;38.83;;;;;;;;;;5042495;28;20353;-84
2024/01/12 05:09:41;;;;;;;78.40;36.13;;;;;;;;;;5049395;28;20025;-84
2024/01/12 05:12:06;;;;;;;69.97;32.90;;;;;;;;;;5041740;28;20017;-83
2024/01/12 05:14:33;;;;;;;50.13;22.90;;;;;;;;;;5046614;28;20022;-84
2024/01/12 05:16:58;;;;;;;79.50;35.23;;;;;;;;;;5047441;28;20048;-84
2024/01/12 05:19:23;;;;;;;89.20;37.00;;;;;;;;;;5048171;28;20033;-84
2024/01/12 05:21:49;;;;;;;84.60;34.47;;;;;;;;;;5048644;28;20119;-84
2024/01/12 05:24:15;;;;;;;126.83;53.17;;;;;;;;;;5046902;28;20475;-84
2024/01/12 05:26:40;;;;;;;102.57;43.97;;;;;;;;;;5049048;28;20066;-84
2024/01/12 05:29:08;;;;;;;82.70;34.53;;;;;;;;;;5049068;28;20028;-83
2024/01/12 05:31:33;;;;;;;119.53;57.33;;;;;;;;;;5047556;28;20090;-83
2024/01/12 05:33:58;;;;;;;110.17;51.33;;;;;;;;;;5048361;28;20546;-83
2024/01/12 05:36:24;;;;;;;78.97;39.07;;;;;;;;;;5048231;28;20078;-84
2024/01/12 05:38:49;;;;;;;91.50;42.63;;;;;;;;;;5048304;28;20102;-84
2024/01/12 05:41:14;;;;;;;50.10;24.17;;;;;;;;;;5048533;28;20163;-84
2024/01/12 05:43:39;;;;;;;104.17;47.20;;;;;;;;;;5046942;28;20352;-83
2024/01/12 05:46:05;;;;;;;76.97;37.70;;;;;;;;;;5049115;28;20028;-83
2024/01/12 05:48:30;;;;;;;124.23;52.00;;;;;;;;;;5047373;28;20110;-83
2024/01/12 05:50:56;;;;;;;102.80;46.60;;;;;;;;;;5045966;28;20019;-84
2024/01/12 05:53:25;;;;;;;116.20;50.77;;;;;;;;;;5046950;28;20111;-83
2024/01/12 05:55:51;;;;;;;83.33;37.17;;;;;;;;;;5047159;28;20509;-84
2024/01/12 05:58:16;;;;;;;96.17;40.87;;;;;;;;;;5046714;28;20052;-83
2024/01/12 06:00:42;;;;;;;99.50;43.30;;;;;;;;;;5047549;28;20024;-84
2024/01/12 06:03:07;;;;;;;81.23;35.00;;;;;;;;;;5047754;28;20091;-83
2024/01/12 06:05:32;;;;;;;88.87;39.93;;;;;;;;;;5046624;28;20380;-84
2024/01/12 06:07:57;;;;;;;109.20;51.63;;;;;;;;;;5046413;28;21023;-84
2024/01/12 06:10:23;;;;;;;90.43;40.40;;;;;;;;;;5046542;28;20020;-84
2024/01/12 06:12:48;;;;;;;116.23;49.90;;;;;;;;;;5046827;28;20025;-82
2024/01/12 06:15:13;;;;;;;147.90;53.00;;;;;;;;;;5047275;28;20108;-83
2024/01/12 06:17:39;;;;;;;89.60;39.77;;;;;;;;;;5046386;28;20407;-84
2024/01/12 06:20:05;;;;;;;114.43;50.00;;;;;;;;;;5046959;28;20031;-83
2024/01/12 06:22:30;;;;;;;90.90;40.67;;;;;;;;;;5047216;28;20027;-82
2024/01/12 06:24:55;;;;;;;158.97;65.37;;;;;;;;;;5048222;28;20028;-84
2024/01/12 06:27:21;;;;;;;108.10;43.87;;;;;;;;;;5047417;28;20024;-84
2024/01/12 06:29:46;;;;;;;148.57;60.10;;;;;;;;;;5046769;28;20133;-82
2024/01/12 06:32:11;;;;;;;104.53;48.80;;;;;;;;;;5047288;28;20486;-84
2024/01/12 06:34:39;;;;;;;111.97;50.00;;;;;;;;;;5047258;28;20067;-83
2024/01/12 06:37:05;;;;;;;120.07;49.93;;;;;;;;;;5043301;28;20032;-84
2024/01/12 06:39:30;;;;;;;210.70;74.97;;;;;;;;;;5047282;28;20025;-84
2024/01/12 06:41:56;;;;;;;321.03;124.27;;;;;;;;;;5048175;28;20049;-84
2024/01/12 06:44:21;;;;;;;314.53;125.27;;;;;;;;;;5047583;28;20017;-83
2024/01/12 06:46:46;;;;;;;882.20;472.60;;;;;;;;;;5049065;28;20497;-84
2024/01/12 06:49:12;;;;;;;437.30;176.83;;;;;;;;;;5047445;28;20471;-84
2024/01/12 06:51:37;;;;;;;374.23;155.10;;;;;;;;;;5046214;28;20024;-84
2024/01/12 06:54:03;;;;;;;479.37;215.97;;;;;;;;;;5046663;28;20025;-83
2024/01/12 06:56:28;;;;;;;254.20;119.33;;;;;;;;;;5046457;28;20021;-84
2024/01/12 06:58:53;;;;;;;213.63;115.50;;;;;;;;;;5048422;28;20029;-84
2024/01/12 07:01:19;;;;;;;140.27;66.97;;;;;;;;;;5046210;28;20120;-83
2024/01/12 07:03:45;;;;;;;311.10;170.97;;;;;;;;;;5059640;28;20021;-84
2024/01/12 07:06:10;;;;;;;196.67;96.57;;;;;;;;;;5045964;28;20025;-84
2024/01/12 07:08:36;;;;;;;344.10;176.23;;;;;;;;;;5047731;28;20025;-83
2024/01/12 07:11:07;;;;;;;199.17;93.00;;;;;;;;;;5046503;28;20112;-83
2024/01/12 07:13:33;;;;;;;186.77;79.20;;;;;;;;;;5064184;28;20059;-83
2024/01/12 07:15:58;;;;;;;153.37;75.83;;;;;;;;;;5053938;28;20061;-83
2024/01/12 07:18:23;;;;;;;256.27;123.47;;;;;;;;;;5046580;28;20088;-83
2024/01/12 07:20:49;;;;;;;162.07;73.87;;;;;;;;;;5046577;28;20063;-83
2024/01/12 07:23:14;;;;;;;198.27;85.20;;;;;;;;;;5047773;28;20017;-83
2024/01/12 07:25:39;;;;;;;238.83;100.20;;;;;;;;;;5048086;28;20021;-83
2024/01/12 07:28:05;;;;;;;221.37;106.40;;;;;;;;;;5043324;28;20490;-83
2024/01/12 07:30:31;;;;;;;177.33;79.23;;;;;;;;;;5048051;28;20502;-83
2024/01/12 07:32:56;;;;;;;139.73;62.53;;;;;;;;;;5048942;28;20028;-82
2024/01/12 07:35:21;;;;;;;105.10;47.50;;;;;;;;;;5046414;28;21418;-84
2024/01/12 07:37:47;;;;;;;100.40;45.97;;;;;;;;;;5046897;28;20275;-83
2024/01/12 07:40:12;;;;;;;150.27;69.23;;;;;;;;;;5048521;28;20017;-84
2024/01/12 07:42:38;;;;;;;155.37;65.40;;;;;;;;;;5042486;28;20028;-82
2024/01/12 07:45:04;;;;;;;142.87;62.50;;;;;;;;;;5047138;28;20017;-83
2024/01/12 07:47:29;;;;;;;221.80;105.63;;;;;;;;;;5035076;28;20022;-82
2024/01/12 07:49:54;;;;;;;123.40;62.03;;;;;;;;;;5046949;28;20028;-83
2024/01/12 07:52:20;;;;;;;154.93;72.43;;;;;;;;;;5045348;28;20021;-82
2024/01/12 07:54:46;;;;;;;136.93;62.07;;;;;;;;;;5048707;28;20025;-83
2024/01/12 07:57:12;;;;;;;104.30;50.00;;;;;;;;;;5052089;28;20016;-85
2024/01/12 07:59:37;;;;;;;108.60;49.03;;;;;;;;;;5068322;28;20390;-83
2024/01/12 08:02:02;;;;;;;131.97;59.40;;;;;;;;;;5069914;28;20028;-84
2024/01/12 08:04:28;;;;;;;137.60;59.27;;;;;;;;;;5059540;28;20435;-83
2024/01/12 08:06:53;;;;;;;177.63;78.13;;;;;;;;;;5050871;28;20106;-83
2024/01/12 08:09:18;;;;;;;146.17;66.00;;;;;;;;;;5049445;28;20021;-82
2024/01/12 08:11:44;;;;;;;120.53;56.37;;;;;;;;;;5055306;28;20083;-83
2024/01/12 08:14:09;;;;;;;138.63;63.23;;;;;;;;;;5078503;28;20025;-84
2024/01/12 08:16:34;;;;;;;112.40;54.27;;;;;;;;;;5061615;28;20398;-83
2024/01/12 08:19:00;;;;;;;106.30;52.90;;;;;;;;;;5061537;28;20507;-83
2024/01/12 08:21:25;;;;;;;130.00;70.87;;;;;;;;;;5061749;28;20078;-82
2024/01/12 08:23:51;;;;;;;128.80;66.13;;;;;;;;;;5059873;28;20048;-83
2024/01/12 08:26:19;;;;;;;104.88;54.72;;;;;;;;;;5061363;28;20020;-83
2024/01/12 08:28:44;;;;;;;82.05;38.35;;;;;;;;;;5059963;28;20483;-83
2024/01/12 08:31:09;;;;;;;120.22;57.85;;;;;;;;;;5061822;28;20031;-83
2024/01/12 08:33:36;;;;;;;82.70;40.75;;;;;;;;;;5072669;28;20048;-83
2024/01/12 08:36:02;;;;;;;95.22;46.63;;;;;;;;;;5064364;28;20029;-83
2024/01/12 08:38:27;;;;;;;102.85;48.03;;;;;;;;;;5072560;28;20032;-83
2024/01/12 08:40:53;;;;;;;71.22;34.15;;;;;;;;;;5077635;28;20024;-83
2024/01/12 08:43:19;;;;;;;76.20;37.60;;;;;;;;;;5065526;28;20343;-85
2024/01/12 08:45:44;;;;;;;93.60;45.25;;;;;;;;;;5055372;28;20029;-85
2024/01/12 08:48:09;;;;;;;116.13;54.33;;;;;;;;;;5046495;28;20021;-85
2024/01/12 08:50:35;;;;;;;98.55;43.78;;;;;;;;;;5042814;28;20025;-84
2024/01/12 08:53:01;;;;;;;103.30;49.22;;;;;;;;;;5053645;28;20027;-85
2024/01/12 08:55:30;;;;;;;70.28;33.58;;;;;;;;;;5059127;28;20048;-83
2024/01/12 08:57:55;;;;;;;;;;;;;;;;;;5014447;28;20032;-85
2024/01/12 09:00:20;;;;;;;73.28;35.97;;;;;;;;;;5047178;28;19905;-85
2024/01/12 09:02:46;;;;;;;72.45;34.25;;;;;;;;;;5055643;28;20570;-85
2024/01/12 09:05:11;;;;;;;152.73;70.60;;;;;;;;;;5050313;28;20589;-85
2024/01/12 09:07:38;;;;;;;123.57;57.80;;;;;;;;;;5044607;28;20048;-85
2024/01/12 09:10:03;;;;;;;218.45;93.47;;;;;;;;;;5030242;28;20031;-84
2024/01/12 09:12:28;;;;;;;200.75;89.57;;;;;;;;;;5053509;28;20025;-84
2024/01/12 09:14:54;;;;;;;187.73;75.97;;;;;;;;;;5053167;28;20033;-84
2024/01/12 09:17:20;;;;;;;136.05;61.58;;;;;;;;;;5048767;28;20060;-84
2024/01/12 09:19:46;;;;;;;181.95;79.78;;;;;;;;;;5065523;28;20414;-84
2024/01/12 09:22:11;;;;;;;163.60;72.55;;;;;;;;;;5050105;28;20014;-83
2024/01/12 09:24:37;;;;;;;276.65;136.50;;;;;;;;;;5065903;28;20035;-83
2024/01/12 09:27:02;;;;;;;116.68;53.25;;;;;;;;;;5064967;28;20016;-84
2024/01/12 09:29:27;;;;;;;122.30;58.38;;;;;;;;;;5062005;28;20027;-84
2024/01/12 09:31:53;;;;;;;137.35;68.43;;;;;;;;;;5051156;28;20017;-84
2024/01/12 09:34:18;;;;;;;122.13;61.47;;;;;;;;;;5058931;28;20024;-84
2024/01/12 09:36:43;;;;;;;117.82;67.43;;;;;;;;;;5050215;28;20024;-85
2024/01/12 09:39:14;;;;;;;99.18;54.30;;;;;;;;;;5048818;28;20383;-85
2024/01/12 09:41:45;;;;;;;76.50;38.28;;;;;;;;;;5049164;28;20036;-86
2024/01/12 09:44:11;;;;;;;70.70;38.28;;;;;;;;;;5058810;28;20021;-84
2024/01/12 09:46:43;;;;;;;94.00;45.40;;;;;;;;;;5068523;28;20051;-85
2024/01/12 09:49:08;;;;;;;324.90;165.30;;;;;;;;;;5052421;28;20021;-84
2024/01/12 09:51:34;;;;;;;104.35;51.58;;;;;;;;;;5048012;28;20386;-84
2024/01/12 09:53:59;;;;;;;135.60;78.43;;;;;;;;;;5056249;28;20024;-85
2024/01/12 09:56:25;;;;;;;105.10;59.53;;;;;;;;;;5050852;28;20390;-85
2024/01/12 09:58:50;;;;;;;86.55;43.63;;;;;;;;;;5063168;28;20191;-84
2024/01/12 10:01:17;;;;;;;103.35;54.25;;;;;;;;;;5066474;28;20031;-84
2024/01/12 10:03:43;;;;;;;108.95;57.13;;;;;;;;;;5048655;28;20503;-84
2024/01/12 10:06:09;;;;;;;125.65;63.15;;;;;;;;;;5049091;28;20017;-86
2024/01/12 10:08:37;;;;;;;113.35;59.88;;;;;;;;;;5041814;28;20047;-84
2024/01/12 10:11:03;;;;;;;84.05;43.47;;;;;;;;;;5045606;28;20138;-84
2024/01/12 10:13:28;;;;;;;96.82;48.25;;;;;;;;;;5050708;28;20608;-84
2024/01/12 10:15:53;;;;;;;112.05;59.10;;;;;;;;;;5048924;28;20021;-86
2024/01/12 10:18:19;;;;;;;78.40;40.80;;;;;;;;;;5045329;28;20048;-86
2024/01/12 10:20:44;;;;;;;105.95;51.80;;;;;;;;;;5043057;28;20013;-84
2024/01/12 10:23:11;;;;;;;94.57;47.83;;;;;;;;;;5048481;28;20621;-85
2024/01/12 10:25:36;;;;;;;103.93;51.50;;;;;;;;;;5043352;28;20031;-85
2024/01/12 10:28:01;;;;;;;86.05;43.47;;;;;;;;;;5046271;28;20055;-85
2024/01/12 10:30:29;;;;;;;104.57;51.63;;;;;;;;;;5048849;28;20479;-86
2024/01/12 10:32:54;;;;;;;98.35;48.38;;;;;;;;;;5046278;28;20028;-82
2024/01/12 10:35:20;;;;;;;88.65;47.05;;;;;;;;;;5043837;28;20021;-83
2024/01/12 10:37:47;;;;;;;107.18;51.85;;;;;;;;;;5043364;28;20025;-84
2024/01/12 10:40:16;;;;;;;107.60;59.83;;;;;;;;;;5063391;28;20043;-84
2024/01/12 10:42:51;;;;;;;71.20;36.75;;;;;;;;;;5061328;28;20033;-86
2024/01/12 10:45:25;;;;;;;87.72;47.20;;;;;;;;;;5046009;28;20056;-85
2024/01/12 10:48:02;;;;;;;75.40;39.88;;;;;;;;;;5037826;28;20035;-84
2024/01/12 10:50:33;;;;;;;70.63;37.35;;;;;;;;;;5043898;28;20044;-85
2024/01/12 10:53:05;;;;;;;86.85;48.35;;;;;;;;;;5046434;28;20017;-86
2024/01/12 10:55:36;;;;;;;78.30;40.42;;;;;;;;;;5044459;28;20037;-87
2024/01/12 10:58:02;;;;;;;85.50;46.90;;;;;;;;;;5052623;28;20025;-87
2024/01/12 11:00:29;;;;;;;79.00;40.65;;;;;;;;;;5056182;28;20113;-83
2024/01/12 11:02:54;;;;;;;93.00;48.55;;;;;;;;;;5059373;28;20031;-86
2024/01/12 11:05:21;;;;;;;92.97;47.63;;;;;;;;;;5045512;28;20521;-86
2024/01/12 11:07:47;;;;;;;96.47;52.63;;;;;;;;;;5040320;28;20013;-86
2024/01/12 11:10:13;;;;;;;92.50;48.45;;;;;;;;;;5047427;28;20025;-86
2024/01/12 11:12:40;;;;;;;76.32;38.58;;;;;;;;;;5039037;28;20021;-84
2024/01/12 11:15:06;;;;;;;96.10;51.55;;;;;;;;;;5041141;28;20106;-85
2024/01/12 11:17:34;;;;;;;75.80;41.35;;;;;;;;;;5042236;28;20645;-87
2024/01/12 11:20:18;;;;;;;84.68;42.20;;;;;;;;;;5041737;28;20090;-86
2024/01/12 11:22:45;;;;;;;104.22;50.63;;;;;;;;;;5042645;28;20037;-84
2024/01/12 11:25:11;;;;;;;114.65;60.65;;;;;;;;;;5040199;28;20541;-86
2024/01/12 11:27:40;;;;;;;101.75;49.45;;;;;;;;;;5043467;28;20032;-85
2024/01/12 11:30:05;;;;;;;;;;;;;;;;;;5044341;28;20664;-86
2024/01/12 11:32:31;;;;;;;98.76;48.70;;;;;;;;;;5032170;28;19999;-86
2024/01/12 11:35:29;;;;;;;117.70;57.72;;;;;;;;;;5042165;28;20510;-86
2024/01/12 11:38:03;;;;;;;251.15;123.82;;;;;;;;;;4958941;28;20038;-84
2024/01/12 11:40:28;;;;;;;91.18;45.58;;;;;;;;;;4946718;28;20035;-84
2024/01/12 11:42:54;;;;;;;99.18;48.75;;;;;;;;;;4988095;28;20037;-85
2024/01/12 11:45:20;;;;;;;106.35;57.17;;;;;;;;;;4971139;28;20041;-85
2024/01/12 11:47:45;;;;;;;162.48;79.53;;;;;;;;;;4962765;28;20026;-85
2024/01/12 11:50:14;;;;;;;148.98;74.45;;;;;;;;;;4955602;28;20344;-86
2024/01/12 11:52:40;;;;;;;162.60;83.03;;;;;;;;;;4951417;28;20425;-85
2024/01/12 11:55:09;;;;;;;171.55;72.50;;;;;;;;;;4950031;28;20108;-85
2024/01/12 11:57:35;;;;;;;;;;;;;;;;;;4951805;28;20249;-85
2024/01/12 12:00:00;;;;;;;153.90;69.70;;;;;;;;;;4950758;28;20480;-87
2024/01/12 12:02:25;;;;;;;102.97;49.13;;;;;;;;;;4965245;28;20038;-84
2024/01/12 12:04:54;;;;;;;103.78;51.38;;;;;;;;;;4952524;28;20030;-86
2024/01/12 12:07:26;;;;;;;120.13;61.95;;;;;;;;;;4966816;28;20058;-85
2024/01/12 12:09:54;;;;;;;263.50;143.80;;;;;;;;;;4951296;28;20508;-86
2024/01/12 12:12:20;;;;;;;166.05;83.05;;;;;;;;;;4952690;28;20530;-86
2024/01/12 12:15:01;;;;;;;189.77;90.63;;;;;;;;;;5046707;28;20025;-86
2024/01/12 12:17:27;;;;;;;143.05;66.68;;;;;;;;;;5046993;28;20044;-86
2024/01/12 12:19:53;;;;;;;175.43;89.53;;;;;;;;;;5051226;28;20040;-86
2024/01/12 12:22:18;;;;;;;397.50;192.68;;;;;;;;;;5050486;28;20024;-86
2024/01/12 12:24:47;;;;;;;90.90;44.05;;;;;;;;;;5050177;28;20017;-86
2024/01/12 12:27:13;;;;;;;83.72;45.25;;;;;;;;;;5049798;28;20025;-86
2024/01/12 12:29:41;;;;;;;100.20;55.22;;;;;;;;;;5052947;28;20028;-84
2024/01/12 12:32:09;;;;;;;131.35;76.45;;;;;;;;;;5056560;28;20031;-85
2024/01/12 12:34:34;;;;;;;120.97;65.47;;;;;;;;;;5074768;28;20033;-86
2024/01/12 12:37:00;;;;;;;121.80;59.28;;;;;;;;;;5057243;28;20052;-86
2024/01/12 12:39:25;;;;;;;133.18;62.63;;;;;;;;;;5050439;28;20049;-85
2024/01/12 12:41:51;;;;;;;116.25;57.72;;;;;;;;;;5048258;28;20068;-85
2024/01/12 12:44:18;;;;;;;88.68;40.72;;;;;;;;;;5047627;28;20402;-86
2024/01/12 12:46:43;;;;;;;88.57;48.08;;;;;;;;;;5037252;28;20025;-87
2024/01/12 12:49:09;;;;;;;68.65;36.20;;;;;;;;;;5050448;28;20029;-86
2024/01/12 12:51:37;;;;;;;61.03;33.95;;;;;;;;;;5043715;28;20028;-87
2024/01/12 12:54:03;;;;;;;100.70;63.70;;;;;;;;;;5049933;28;20028;-84
2024/01/12 12:56:28;;;;;;;104.35;50.70;;;;;;;;;;5033967;28;20399;-86
2024/01/12 12:58:54;;;;;;;98.63;44.95;;;;;;;;;;5048575;28;20029;-84
2024/01/12 13:01:19;;;;;;;75.03;39.78;;;;;;;;;;5048715;28;20028;-86
2024/01/12 13:03:44;;;;;;;111.13;54.60;;;;;;;;;;5048678;28;20032;-84
2024/01/12 13:06:09;;;;;;;100.68;48.15;;;;;;;;;;5051350;28;20020;-85
2024/01/12 13:08:36;;;;;;;116.75;55.38;;;;;;;;;;5051197;28;20060;-85
2024/01/12 13:11:03;;;;;;;101.25;52.75;;;;;;;;;;5049883;28;20021;-85
2024/01/12 13:13:28;;;;;;;86.40;43.45;;;;;;;;;;5049417;28;20021;-84
2024/01/12 13:15:55;;;;;;;107.97;53.40;;;;;;;;;;5049330;28;20024;-85
2024/01/12 13:18:20;;;;;;;88.70;42.17;;;;;;;;;;5057477;28;20110;-85
2024/01/12 13:20:47;;;;;;;102.63;45.75;;;;;;;;;;5066036;28;20025;-85
2024/01/12 13:23:12;;;;;;;92.30;45.17;;;;;;;;;;5059671;28;20082;-85
2024/01/12 13:25:37;;;;;;;107.07;53.03;;;;;;;;;;5085439;28;20013;-85
2024/01/12 13:28:03;;;;;;;96.72;46.78;;;;;;;;;;5075748;28;20009;-84
2024/01/12 13:30:28;;;;;;;124.13;57.63;;;;;;;;;;5047404;28;20024;-86
2024/01/12 13:32:53;;;;;;;111.75;52.67;;;;;;;;;;5044721;28;20029;-85
2024/01/12 13:35:21;;;;;;;106.55;53.42;;;;;;;;;;5027335;28;20458;-86
2024/01/12 13:37:46;;;;;;;144.50;64.63;;;;;;;;;;5038753;28;20024;-86
2024/01/12 13:40:11;;;;;;;150.30;74.03;;;;;;;;;;5052297;28;20017;-86
2024/01/12 13:42:37;;;;;;;216.55;107.97;;;;;;;;;;5047515;28;20041;-86
2024/01/12 13:45:03;;;;;;;243.40;113.22;;;;;;;;;;5065245;28;20058;-85
2024/01/12 13:47:28;;;;;;;271.40;118.95;;;;;;;;;;5048663;28;20056;-85
2024/01/12 13:49:53;;;;;;;212.73;97.15;;;;;;;;;;5051518;28;20028;-85
2024/01/12 13:52:19;;;;;;;471.30;209.07;;;;;;;;;;5057087;28;20151;-86
2024/01/12 13:54:47;;;;;;;660.38;264.10;;;;;;;;;;5047167;28;20025;-86
2024/01/12 13:57:12;;;;;;;765.50;299.20;;;;;;;;;;5039313;28;20017;-85
2024/01/12 13:59:37;;;;;;;596.40;253.60;;;;;;;;;;5055169;28;20029;-86
2024/01/12 14:02:04;;;;;;;424.00;162.57;;;;;;;;;;5045243;28;20648;-84
2024/01/12 14:04:30;;;;;;;235.70;90.90;;;;;;;;;;5044179;28;20440;-86